Time;durP1;ratioP1;P1;durP2;ratioP2;P2;SDS_P1;SDS_P2;PMS_P1;PMS_P2;Temp;Humidity;BMP_temperature;BMP_pressure;BME280_temperature;BME280_humidity;BME280_pressure;Samples;Min_cycle;Max_cycle;Signal;HPM_P1;HPM_P2
2023/08/17 00:02:06;;;;;;;21.35;14.13;;;16.60;99.90;;;;;;5041415;28;20409;-60
2023/08/17 00:04:33;;;;;;;20.17;13.57;;;16.60;99.90;;;;;;5036968;28;20419;-61
2023/08/17 00:06:59;;;;;;;19.08;13.95;;;16.60;99.90;;;;;;5030645;28;20423;-61
2023/08/17 00:09:26;;;;;;;25.08;16.38;;;16.60;99.90;;;;;;5037762;28;20422;-61
2023/08/17 00:11:53;;;;;;;23.23;15.80;;;16.40;99.90;;;;;;5036817;28;20515;-61
2023/08/17 00:14:20;;;;;;;21.60;15.45;;;16.60;99.90;;;;;;5035188;28;20517;-60
2023/08/17 00:16:48;;;;;;;25.50;17.65;;;16.50;99.90;;;;;;5041495;28;20440;-60
2023/08/17 00:19:14;;;;;;;22.38;14.93;;;16.50;99.90;;;;;;5034604;28;20423;-63
2023/08/17 00:21:41;;;;;;;20.97;16.57;;;16.50;99.90;;;;;;5034530;28;21191;-61
2023/08/17 00:24:08;;;;;;;28.23;18.87;;;16.50;99.90;;;;;;5033631;28;20440;-60
2023/08/17 00:26:35;;;;;;;25.13;18.67;;;16.50;99.90;;;;;;5036655;28;20805;-61
2023/08/17 00:29:02;;;;;;;24.80;18.25;;;16.60;99.90;;;;;;5041854;28;20421;-61
2023/08/17 00:31:29;;;;;;;22.25;17.48;;;16.40;99.90;;;;;;5043505;28;20435;-61
2023/08/17 00:33:57;;;;;;;22.08;16.42;;;16.60;99.90;;;;;;5042255;28;20634;-61
2023/08/17 00:36:24;;;;;;;23.75;18.23;;;16.40;99.90;;;;;;5042426;28;20419;-61
2023/08/17 00:38:50;;;;;;;23.80;17.63;;;16.60;99.90;;;;;;5044781;28;20467;-61
2023/08/17 00:41:17;;;;;;;23.57;16.43;;;16.50;99.90;;;;;;5042663;28;20462;-62
2023/08/17 00:43:43;;;;;;;22.05;17.08;;;16.50;99.90;;;;;;5041654;28;20434;-61
2023/08/17 00:46:11;;;;;;;23.48;16.13;;;16.50;99.90;;;;;;5043211;28;20417;-61
2023/08/17 00:48:38;;;;;;;24.65;17.05;;;16.60;99.90;;;;;;5046489;28;20912;-61
2023/08/17 00:51:06;;;;;;;23.73;16.42;;;16.60;99.90;;;;;;5040846;28;20432;-61
2023/08/17 00:53:33;;;;;;;22.50;16.40;;;16.60;99.90;;;;;;5037420;28;20419;-61
2023/08/17 00:56:01;;;;;;;23.52;16.70;;;16.50;99.90;;;;;;5040830;28;20417;-61
2023/08/17 00:58:29;;;;;;;20.42;15.02;;;16.60;99.90;;;;;;5037478;28;20432;-61
2023/08/17 01:00:56;;;;;;;13.85;11.07;;;16.60;99.90;;;;;;5040535;28;20417;-61
2023/08/17 01:03:23;;;;;;;14.27;10.85;;;16.50;99.90;;;;;;5037533;28;20782;-61
2023/08/17 01:05:50;;;;;;;18.92;13.57;;;16.40;99.90;;;;;;5040441;28;20418;-61
2023/08/17 01:08:18;;;;;;;15.82;12.65;;;16.50;99.90;;;;;;5036776;28;20949;-61
2023/08/17 01:10:53;;;;;;;19.73;12.95;;;16.50;99.90;;;;;;5039729;28;20421;-62
2023/08/17 01:13:26;;;;;;;15.80;11.35;;;16.50;99.90;;;;;;5033934;28;20402;-62
2023/08/17 01:15:58;;;;;;;16.27;11.90;;;16.50;99.90;;;;;;5039930;28;20412;-62
2023/08/17 01:18:27;;;;;;;18.17;12.80;;;16.50;99.90;;;;;;5044024;28;20843;-62
2023/08/17 01:20:55;;;;;;;17.53;13.93;;;16.40;99.90;;;;;;5046031;28;20554;-62
2023/08/17 01:23:23;;;;;;;16.40;13.07;;;16.40;99.90;;;;;;5040861;28;20405;-62
2023/08/17 01:25:50;;;;;;;15.80;12.77;;;16.40;99.90;;;;;;5044400;28;20413;-62
2023/08/17 01:28:17;;;;;;;18.50;12.95;;;16.50;99.90;;;;;;5040998;28;20409;-62
2023/08/17 01:30:51;;;;;;;18.97;12.87;;;16.50;99.90;;;;;;5040351;28;20469;-62
2023/08/17 01:33:28;;;;;;;16.80;11.80;;;16.60;99.90;;;;;;5038074;28;20425;-62
2023/08/17 01:36:02;;;;;;;18.58;13.63;;;16.30;99.90;;;;;;5041779;28;20419;-62
2023/08/17 01:38:32;;;;;;;21.20;14.95;;;16.40;99.90;;;;;;5041604;28;20503;-62
2023/08/17 01:41:01;;;;;;;20.60;15.05;;;16.40;99.90;;;;;;5038693;28;20421;-61
2023/08/17 01:43:29;;;;;;;25.27;16.52;;;16.40;99.90;;;;;;5041531;28;20844;-64
2023/08/17 01:45:55;;;;;;;23.42;17.00;;;16.20;99.90;;;;;;5038102;28;20430;-62
2023/08/17 01:48:22;;;;;;;20.90;17.65;;;16.30;99.90;;;;;;5045786;28;20415;-61
2023/08/17 01:50:49;;;;;;;26.88;18.55;;;16.30;99.90;;;;;;5041990;28;20411;-61
2023/08/17 01:53:15;;;;;;;28.50;19.48;;;16.20;99.90;;;;;;5042761;28;20409;-61
2023/08/17 01:55:43;;;;;;;29.50;20.20;;;16.20;99.90;;;;;;5039849;28;20975;-62
2023/08/17 01:58:10;;;;;;;26.98;20.25;;;16.30;99.90;;;;;;5037854;28;20417;-62
2023/08/17 02:00:36;;;;;;;28.23;19.92;;;16.70;99.90;;;;;;5040133;28;20410;-62
2023/08/17 02:03:03;;;;;;;31.27;20.17;;;16.30;99.90;;;;;;5044326;28;20984;-61
2023/08/17 02:05:30;;;;;;;30.65;20.83;;;16.40;99.90;;;;;;5042407;28;20887;-62
2023/08/17 02:07:57;;;;;;;33.00;21.20;;;16.50;99.90;;;;;;5043248;28;20417;-62
2023/08/17 02:10:23;;;;;;;33.95;23.52;;;16.40;99.90;;;;;;5037080;28;20409;-62
2023/08/17 02:12:51;;;;;;;36.22;24.17;;;16.30;99.90;;;;;;5042697;28;20420;-62
2023/08/17 02:15:18;;;;;;;38.92;25.23;;;16.30;99.90;;;;;;5040910;28;21125;-61
2023/08/17 02:17:44;;;;;;;38.75;25.40;;;16.30;99.90;;;;;;5039021;28;20422;-61
2023/08/17 02:20:13;;;;;;;40.15;26.42;;;16.70;99.90;;;;;;5038575;28;20414;-62
2023/08/17 02:22:40;;;;;;;34.03;23.38;;;16.40;99.90;;;;;;5038002;28;20838;-61
2023/08/17 02:25:08;;;;;;;37.78;25.58;;;16.40;99.90;;;;;;5032850;28;20435;-61
2023/08/17 02:27:35;;;;;;;42.25;26.80;;;16.30;99.90;;;;;;5038806;28;20415;-61
2023/08/17 02:30:03;;;;;;;38.22;26.17;;;16.10;99.90;;;;;;5036287;28;20437;-62
2023/08/17 02:32:30;;;;;;;38.72;26.77;;;16.30;99.90;;;;;;5040606;28;20435;-62
2023/08/17 02:34:56;;;;;;;40.92;26.23;;;16.30;99.90;;;;;;5038352;28;20797;-61
2023/08/17 02:37:23;;;;;;;34.58;23.40;;;16.40;99.90;;;;;;5040381;28;20449;-61
2023/08/17 02:39:50;;;;;;;38.10;25.70;;;16.50;99.90;;;;;;5037787;28;20415;-61
2023/08/17 02:42:16;;;;;;;38.53;25.57;;;16.30;99.90;;;;;;5040270;28;20435;-61
2023/08/17 02:44:43;;;;;;;38.60;25.77;;;16.30;99.90;;;;;;5045795;28;20793;-61
2023/08/17 02:47:11;;;;;;;38.57;25.90;;;16.10;99.90;;;;;;5045800;28;20440;-61
2023/08/17 02:49:37;;;;;;;36.47;23.75;;;16.10;99.90;;;;;;5048478;28;20438;-62
2023/08/17 02:52:04;;;;;;;27.85;21.00;;;16.30;99.90;;;;;;5037715;28;20409;-61
2023/08/17 02:54:31;;;;;;;31.00;22.40;;;16.40;99.90;;;;;;5038887;28;20881;-61
2023/08/17 02:56:58;;;;;;;31.58;21.20;;;16.20;99.90;;;;;;5042322;28;22333;-60
2023/08/17 02:59:25;;;;;;;37.05;22.55;;;16.30;99.90;;;;;;5039006;28;20651;-62
2023/08/17 03:01:51;;;;;;;35.17;22.73;;;16.20;99.90;;;;;;5042099;28;20919;-62
2023/08/17 03:04:19;;;;;;;30.35;21.35;;;16.30;99.90;;;;;;5038942;28;20459;-61
2023/08/17 03:06:46;;;;;;;35.38;21.55;;;16.20;99.90;;;;;;5041283;28;20420;-61
2023/08/17 03:09:12;;;;;;;35.30;21.83;;;16.10;99.90;;;;;;5039823;28;20417;-61
2023/08/17 03:11:39;;;;;;;30.65;21.17;;;15.80;99.90;;;;;;5038387;28;20913;-61
2023/08/17 03:14:06;;;;;;;31.67;19.67;;;16.20;99.90;;;;;;5042038;28;20459;-62
2023/08/17 03:16:32;;;;;;;26.00;17.90;;;16.10;99.90;;;;;;5036174;28;20410;-61
2023/08/17 03:18:59;;;;;;;25.53;18.50;;;16.30;99.90;;;;;;5041597;28;20602;-61
2023/08/17 03:21:29;;;;;;;26.43;18.00;;;16.20;99.90;;;;;;5039659;28;21319;-61
2023/08/17 03:23:55;;;;;;;28.90;18.83;;;15.90;99.90;;;;;;5040722;28;20450;-62
2023/08/17 03:26:22;;;;;;;26.15;18.52;;;16.20;99.90;;;;;;5039496;28;20414;-61
2023/08/17 03:28:49;;;;;;;27.20;17.48;;;16.10;99.90;;;;;;5039624;28;20415;-61
2023/08/17 03:31:15;;;;;;;27.92;18.33;;;16.00;99.90;;;;;;5040026;28;20442;-61
2023/08/17 03:33:42;;;;;;;25.98;16.77;;;16.00;99.90;;;;;;5039414;28;20415;-61
2023/08/17 03:36:09;;;;;;;25.17;18.08;;;16.10;99.90;;;;;;5040762;28;20421;-61
2023/08/17 03:38:38;;;;;;;27.95;18.63;;;16.10;99.90;;;;;;5038726;28;20415;-61
2023/08/17 03:41:05;;;;;;;29.37;19.73;;;16.10;99.90;;;;;;5036450;28;20535;-62
2023/08/17 03:43:32;;;;;;;30.43;21.00;;;16.10;99.90;;;;;;5039626;28;20496;-61
2023/08/17 03:45:59;;;;;;;32.87;21.40;;;16.10;99.90;;;;;;5039095;28;20415;-62
2023/08/17 03:48:25;;;;;;;36.65;22.92;;;16.10;99.90;;;;;;5042119;28;20436;-61
2023/08/17 03:50:53;;;;;;;42.15;24.58;;;15.90;99.90;;;;;;5034243;28;20482;-61
2023/08/17 03:53:19;;;;;;;36.05;23.38;;;16.00;99.90;;;;;;5041076;28;20492;-61
2023/08/17 03:55:48;;;;;;;37.83;23.13;;;16.10;99.90;;;;;;5038553;28;20419;-61
2023/08/17 03:58:14;;;;;;;32.78;21.67;;;16.20;99.90;;;;;;5035307;28;20412;-60
2023/08/17 04:00:42;;;;;;;33.75;22.65;;;16.00;99.90;;;;;;5036196;28;20835;-60
2023/08/17 04:03:09;;;;;;;37.55;24.77;;;15.80;99.90;;;;;;5029137;28;20430;-60
2023/08/17 04:05:35;;;;;;;38.55;24.73;;;16.00;99.90;;;;;;5028901;28;20423;-61
2023/08/17 04:08:02;;;;;;;38.03;24.90;;;16.00;99.90;;;;;;5032308;28;20461;-61
2023/08/17 04:10:29;;;;;;;41.72;25.45;;;16.00;99.90;;;;;;5029030;28;20423;-61
2023/08/17 04:12:57;;;;;;;40.60;25.65;;;16.00;99.90;;;;;;5038474;28;20419;-61
2023/08/17 04:15:24;;;;;;;39.20;25.90;;;16.00;99.90;;;;;;5038674;28;20415;-61
2023/08/17 04:17:50;;;;;;;37.83;25.60;;;16.10;99.90;;;;;;5040887;28;20463;-61
2023/08/17 04:20:18;;;;;;;38.28;25.85;;;16.10;99.90;;;;;;5042486;28;20471;-61
2023/08/17 04:22:44;;;;;;;37.65;27.00;;;16.10;99.90;;;;;;5038997;28;20489;-62
2023/08/17 04:25:11;;;;;;;41.20;25.88;;;16.20;99.90;;;;;;5039129;28;20830;-62
2023/08/17 04:27:38;;;;;;;41.78;27.42;;;16.00;99.90;;;;;;5038102;28;20410;-62
2023/08/17 04:30:08;;;;;;;45.35;28.02;;;16.10;99.90;;;;;;5038428;28;20423;-62
2023/08/17 04:32:34;;;;;;;39.30;26.95;;;16.20;99.90;;;;;;5038469;28;20407;-62
2023/08/17 04:35:01;;;;;;;39.50;27.52;;;16.20;99.90;;;;;;5038463;28;20415;-61
2023/08/17 04:37:27;;;;;;;43.03;29.75;;;16.30;99.90;;;;;;5039681;28;20409;-62
2023/08/17 04:39:54;;;;;;;47.28;31.25;;;16.20;99.90;;;;;;5038510;28;20415;-61
2023/08/17 04:42:21;;;;;;;48.78;32.90;;;16.00;99.90;;;;;;5039684;28;20438;-61
2023/08/17 04:44:47;;;;;;;44.35;31.17;;;16.10;99.90;;;;;;5038676;28;20468;-61
2023/08/17 04:47:16;;;;;;;47.90;32.05;;;16.20;99.90;;;;;;5042950;28;20771;-61
2023/08/17 04:49:42;;;;;;;45.50;30.48;;;16.20;99.90;;;;;;5031773;28;20431;-62
2023/08/17 04:52:09;;;;;;;46.47;32.92;;;15.90;99.90;;;;;;5043617;28;20420;-61
2023/08/17 04:54:36;;;;;;;46.33;32.10;;;16.20;99.90;;;;;;5036102;28;20976;-61
2023/08/17 04:57:04;;;;;;;48.00;31.65;;;16.10;99.90;;;;;;5041471;28;20419;-61
2023/08/17 04:59:31;;;;;;;51.00;33.05;;;16.10;99.90;;;;;;5043274;28;20420;-61
2023/08/17 05:01:58;;;;;;;48.22;31.67;;;16.50;99.90;;;;;;5044527;28;20543;-61
2023/08/17 05:04:26;;;;;;;43.22;29.40;;;17.80;99.90;;;;;;5040915;28;20927;-61
2023/08/17 05:06:53;;;;;;;47.83;30.83;;;16.20;99.90;;;;;;5041831;28;20409;-61
2023/08/17 05:09:19;;;;;;;49.10;31.40;;;16.10;99.90;;;;;;5041313;28;20409;-61
2023/08/17 05:11:47;;;;;;;47.53;31.95;;;16.10;99.90;;;;;;5045851;28;20415;-61
2023/08/17 05:14:13;;;;;;;46.13;31.30;;;16.20;99.90;;;;;;5037208;28;20401;-61
2023/08/17 05:16:40;;;;;;;52.45;35.70;;;16.20;99.90;;;;;;5043273;28;20476;-61
2023/08/17 05:19:07;;;;;;;50.15;33.47;;;16.00;99.90;;;;;;5044165;28;20413;-61
2023/08/17 05:21:36;;;;;;;49.83;32.73;;;16.30;99.90;;;;;;5042554;28;20515;-62
2023/08/17 05:24:03;;;;;;;43.38;31.33;;;16.30;99.90;;;;;;5041008;28;20796;-63
2023/08/17 05:26:29;;;;;;;48.67;30.92;;;16.50;99.90;;;;;;5047168;28;20416;-63
2023/08/17 05:28:56;;;;;;;53.50;32.33;;;16.40;99.90;;;;;;5043549;28;20518;-62
2023/08/17 05:31:23;;;;;;;48.70;32.03;;;16.40;99.90;;;;;;5044135;28;20450;-63
2023/08/17 05:33:49;;;;;;;48.53;31.53;;;16.50;99.90;;;;;;5048039;28;20836;-64
2023/08/17 05:36:16;;;;;;;50.33;32.33;;;16.50;99.90;;;;;;5048623;28;20413;-62
2023/08/17 05:38:44;;;;;;;50.05;32.33;;;16.30;99.90;;;;;;5040413;28;20731;-62
2023/08/17 05:41:11;;;;;;;49.78;33.08;;;16.60;99.90;;;;;;5042991;28;20418;-61
2023/08/17 05:43:37;;;;;;;49.08;31.85;;;16.40;99.90;;;;;;5040144;28;20431;-61
2023/08/17 05:46:04;;;;;;;53.97;33.85;;;17.20;99.90;;;;;;5040360;28;20411;-62
2023/08/17 05:48:30;;;;;;;56.50;35.50;;;16.30;99.90;;;;;;5035938;28;20434;-61
2023/08/17 05:50:57;;;;;;;55.20;33.85;;;16.30;99.90;;;;;;5043199;28;20417;-62
2023/08/17 05:53:24;;;;;;;59.97;35.97;;;16.30;99.90;;;;;;5042965;28;20432;-62
2023/08/17 05:55:52;;;;;;;60.10;35.17;;;16.30;99.90;;;;;;5039711;28;20481;-62
2023/08/17 05:58:19;;;;;;;53.78;34.17;;;16.50;99.90;;;;;;5036721;28;20443;-66
2023/08/17 06:00:45;;;;;;;53.08;33.53;;;16.50;99.90;;;;;;5044928;28;20782;-65
2023/08/17 06:03:12;;;;;;;48.45;31.95;;;16.60;99.90;;;;;;5045273;28;20429;-66
2023/08/17 06:05:40;;;;;;;46.78;30.55;;;17.00;99.90;;;;;;5039949;28;20419;-65
2023/08/17 06:08:06;;;;;;;50.50;32.65;;;16.50;99.90;;;;;;5042950;28;20910;-65
2023/08/17 06:10:33;;;;;;;56.08;35.83;;;16.40;99.90;;;;;;5042515;28;20420;-65
2023/08/17 06:13:01;;;;;;;54.93;36.73;;;16.40;99.90;;;;;;5042285;28;20562;-65
2023/08/17 06:15:28;;;;;;;59.10;35.63;;;16.30;99.90;;;;;;5039801;28;20416;-64
2023/08/17 06:17:54;;;;;;;64.35;37.47;;;16.30;99.90;;;;;;5041599;28;20415;-64
2023/08/17 06:20:21;;;;;;;62.55;37.08;;;15.90;99.90;;;;;;5044028;28;20969;-63
2023/08/17 06:22:49;;;;;;;58.63;36.53;;;16.40;99.90;;;;;;5042716;28;20438;-64
2023/08/17 06:25:16;;;;;;;59.13;34.97;;;17.00;99.90;;;;;;5040706;28;20416;-64
2023/08/17 06:27:43;;;;;;;60.90;35.88;;;16.20;99.90;;;;;;5042781;28;20414;-64
2023/08/17 06:30:12;;;;;;;66.20;37.92;;;16.20;99.90;;;;;;5038006;28;20411;-64
2023/08/17 06:32:39;;;;;;;68.93;38.33;;;16.20;99.90;;;;;;5040649;28;20471;-63
2023/08/17 06:35:07;;;;;;;62.15;36.53;;;16.20;99.90;;;;;;5040746;28;20493;-65
2023/08/17 06:37:34;;;;;;;58.78;34.78;;;16.30;99.90;;;;;;5041541;28;20478;-65
2023/08/17 06:40:01;;;;;;;66.25;36.97;;;16.40;99.90;;;;;;5033696;28;20406;-64
2023/08/17 06:42:27;;;;;;;55.60;32.85;;;16.50;99.90;;;;;;5041191;28;20419;-66
2023/08/17 06:44:54;;;;;;;60.40;36.13;;;15.90;99.90;;;;;;5039115;28;20481;-66
2023/08/17 06:47:22;;;;;;;59.95;35.92;;;16.30;99.90;;;;;;5041741;28;20407;-64
2023/08/17 06:49:48;;;;;;;62.28;37.17;;;16.30;99.90;;;;;;5037809;28;20409;-65
2023/08/17 06:52:15;;;;;;;62.85;37.17;;;16.40;99.90;;;;;;5038881;28;20462;-65
2023/08/17 06:54:42;;;;;;;52.17;32.83;;;16.40;99.90;;;;;;5038922;28;20473;-64
2023/08/17 06:57:08;;;;;;;62.30;35.97;;;16.30;99.90;;;;;;5042163;28;20756;-64
2023/08/17 06:59:35;;;;;;;61.20;35.70;;;16.20;99.90;;;;;;5039000;28;20432;-64
2023/08/17 07:02:02;;;;;;;63.13;37.63;;;16.20;99.90;;;;;;5038495;28;20444;-67
2023/08/17 07:04:30;;;;;;;57.55;35.70;;;15.90;99.90;;;;;;5048377;28;20425;-61
2023/08/17 07:06:57;;;;;;;74.25;41.05;;;16.20;99.90;;;;;;5039396;28;20471;-63
2023/08/17 07:09:23;;;;;;;69.13;38.88;;;16.20;99.90;;;;;;5039687;28;20479;-65
2023/08/17 07:11:50;;;;;;;66.93;38.25;;;16.20;99.90;;;;;;5037222;28;20557;-60
2023/08/17 07:14:17;;;;;;;70.72;39.80;;;16.30;99.90;;;;;;5026886;28;20953;-61
2023/08/17 07:16:44;;;;;;;69.93;40.00;;;16.10;99.90;;;;;;5036691;28;20480;-61
2023/08/17 07:19:11;;;;;;;75.72;41.75;;;16.60;99.90;;;;;;5039984;28;20425;-61
2023/08/17 07:21:39;;;;;;;74.00;42.33;;;16.30;99.90;;;;;;5033647;28;20495;-61
2023/08/17 07:24:13;;;;;;;72.82;40.70;;;16.30;99.90;;;;;;5032028;28;20431;-62
2023/08/17 07:26:40;;;;;;;73.72;39.72;;;;;;;;;;5032322;28;20434;-66
2023/08/17 07:29:06;;;;;;;81.80;43.00;;;16.30;99.90;;;;;;5032812;28;20798;-62
2023/08/17 07:31:37;;;;;;;81.60;42.97;;;16.00;99.90;;;;;;5031268;28;20519;-62
2023/08/17 07:34:04;;;;;;;76.07;43.22;;;16.80;99.90;;;;;;5033263;28;20843;-62
2023/08/17 07:36:31;;;;;;;83.13;44.38;;;16.60;99.90;;;;;;5040225;28;20471;-61
2023/08/17 07:38:59;;;;;;;78.88;43.65;;;16.60;99.90;;;;;;5034338;28;20517;-62
2023/08/17 07:41:26;;;;;;;82.72;46.15;;;16.50;99.90;;;;;;5039391;28;20413;-61
2023/08/17 07:43:53;;;;;;;79.85;43.65;;;16.60;99.90;;;;;;5033456;28;20498;-62
2023/08/17 07:46:19;;;;;;;79.20;46.00;;;16.60;99.90;;;;;;5039020;28;20415;-62
2023/08/17 07:48:46;;;;;;;67.03;41.70;;;16.70;99.90;;;;;;5034154;28;20447;-61
2023/08/17 07:51:13;;;;;;;71.77;43.63;;;16.60;99.90;;;;;;5045332;28;20500;-63
2023/08/17 07:53:40;;;;;;;70.40;43.25;;;16.70;99.90;;;;;;5036011;28;20422;-63
2023/08/17 07:56:08;;;;;;;61.33;39.85;;;16.70;99.90;;;;;;5038410;28;20856;-63
2023/08/17 07:58:34;;;;;;;65.80;42.20;;;16.90;99.90;;;;;;5039959;28;20436;-64
2023/08/17 08:01:01;;;;;;;67.57;42.53;;;16.80;99.90;;;;;;5038277;28;20419;-63
2023/08/17 08:03:28;;;;;;;59.58;39.25;;;16.80;99.90;;;;;;5040510;28;20429;-62
2023/08/17 08:05:54;;;;;;;51.80;35.22;;;17.60;99.90;;;;;;5038029;28;20415;-62
2023/08/17 08:08:21;;;;;;;46.53;31.70;;;17.10;99.90;;;;;;5040935;28;20409;-63
2023/08/17 08:10:48;;;;;;;42.40;29.97;;;17.10;99.90;;;;;;5037740;28;20509;-63
2023/08/17 08:13:16;;;;;;;37.83;29.50;;;17.20;99.90;;;;;;5041054;28;20501;-66
2023/08/17 08:15:42;;;;;;;49.50;33.40;;;17.20;99.90;;;;;;5037765;28;20461;-64
2023/08/17 08:18:09;;;;;;;54.50;37.13;;;17.20;99.90;;;;;;5038561;28;20413;-64
2023/08/17 08:20:36;;;;;;;52.17;37.40;;;17.20;99.90;;;;;;5041704;28;20421;-64
2023/08/17 08:23:03;;;;;;;52.95;35.70;;;17.10;99.90;;;;;;5041990;28;20465;-64
2023/08/17 08:25:29;;;;;;;50.17;35.97;;;17.10;99.90;;;;;;5037192;28;20433;-64
2023/08/17 08:27:56;;;;;;;55.75;39.85;;;16.90;99.90;;;;;;5038991;28;20430;-64
2023/08/17 08:30:24;;;;;;;55.40;38.43;;;16.70;99.90;;;;;;5038507;28;20496;-64
2023/08/17 08:32:51;;;;;;;56.35;36.03;;;16.90;99.90;;;;;;5037396;28;20414;-64
2023/08/17 08:35:18;;;;;;;45.15;32.85;;;16.80;99.90;;;;;;5038424;28;20424;-65
2023/08/17 08:37:44;;;;;;;47.53;34.22;;;16.90;99.90;;;;;;5035943;28;20420;-62
2023/08/17 08:40:13;;;;;;;49.30;34.50;;;16.90;99.90;;;;;;5039229;28;20415;-63
2023/08/17 08:42:40;;;;;;;48.83;34.05;;;17.00;99.90;;;;;;5038267;28;20411;-65
2023/08/17 08:45:08;;;;;;;44.78;33.40;;;17.00;99.90;;;;;;5038430;28;20454;-62
2023/08/17 08:47:37;;;;;;;39.67;31.95;;;17.10;99.90;;;;;;5041035;28;20423;-65
2023/08/17 08:50:05;;;;;;;42.83;32.53;;;17.20;99.90;;;;;;5044600;28;20444;-63
2023/08/17 08:52:35;;;;;;;41.22;31.08;;;17.30;99.90;;;;;;5040962;28;20411;-63
2023/08/17 08:55:09;;;;;;;40.22;31.40;;;17.40;99.90;;;;;;5038273;28;20842;-65
2023/08/17 08:57:37;;;;;;;37.30;28.45;;;17.40;99.90;;;;;;5035257;28;20423;-64
2023/08/17 09:00:05;;;;;;;38.75;29.25;;;17.40;99.90;;;;;;5035145;28;20515;-65
2023/08/17 09:02:33;;;;;;;41.73;31.70;;;17.40;99.90;;;;;;5039986;28;20447;-63
2023/08/17 09:05:02;;;;;;;41.65;31.65;;;17.20;99.90;;;;;;5038376;28;20427;-65
2023/08/17 09:07:30;;;;;;;39.65;27.90;;;17.50;99.90;;;;;;5035913;28;20433;-65
2023/08/17 09:09:57;;;;;;;36.55;29.33;;;18.30;99.90;;;;;;5041034;28;20417;-67
2023/08/17 09:12:24;;;;;;;45.78;32.67;;;18.60;99.90;;;;;;5033627;28;20419;-65
2023/08/17 09:14:50;;;;;;;44.15;32.70;;;17.50;99.90;;;;;;5031534;28;20464;-66
2023/08/17 09:17:24;;;;;;;52.58;36.63;;;17.40;99.90;;;;;;5036786;28;20419;-63
2023/08/17 09:19:50;;;;;;;50.22;36.53;;;17.30;99.90;;;;;;5040816;28;20473;-67
2023/08/17 09:22:24;;;;;;;46.78;33.97;;;17.30;99.90;;;;;;5040273;28;20417;-66
2023/08/17 09:24:51;;;;;;;47.85;34.38;;;17.40;99.90;;;;;;5043317;28;20524;-65
2023/08/17 09:27:18;;;;;;;46.15;34.47;;;17.30;99.90;;;;;;5039909;28;20488;-64
2023/08/17 09:29:46;;;;;;;45.20;33.22;;;;;;;;;;5039939;28;20426;-66
2023/08/17 09:32:16;;;;;;;40.92;31.90;;;17.50;99.90;;;;;;5029978;28;20987;-68
2023/08/17 09:34:42;;;;;;;40.55;32.00;;;17.40;99.90;;;;;;5037028;28;20414;-64
2023/08/17 09:37:09;;;;;;;42.20;31.50;;;17.80;99.90;;;;;;5038380;28;20410;-71
2023/08/17 09:39:38;;;;;;;39.13;31.02;;;17.70;99.90;;;;;;5042532;28;20926;-65
2023/08/17 09:42:05;;;;;;;44.28;33.17;;;17.40;99.90;;;;;;5040605;28;20418;-66
2023/08/17 09:44:35;;;;;;;41.55;31.75;;;17.70;99.90;;;;;;5042698;28;20830;-67
2023/08/17 09:47:02;;;;;;;40.78;32.58;;;17.80;99.90;;;;;;5040636;28;20486;-63
2023/08/17 09:49:32;;;;;;;40.45;31.88;;;17.90;99.90;;;;;;5041194;28;20411;-63
2023/08/17 09:52:00;;;;;;;42.55;33.35;;;18.50;99.90;;;;;;5040669;28;20419;-65
2023/08/17 09:54:31;;;;;;;50.65;37.10;;;17.90;99.90;;;;;;5036721;28;20405;-64
2023/08/17 09:56:59;;;;;;;45.42;35.60;;;17.60;99.90;;;;;;5040238;28;20426;-64
2023/08/17 09:59:26;;;;;;;44.90;35.13;;;17.30;99.90;;;;;;5037923;28;20409;-65
2023/08/17 10:01:53;;;;;;;42.20;33.55;;;17.70;99.90;;;;;;5039781;28;20415;-66
2023/08/17 10:04:22;;;;;;;45.33;35.20;;;18.00;99.90;;;;;;5043049;28;20436;-66
2023/08/17 10:06:52;;;;;;;45.20;35.45;;;18.20;99.90;;;;;;5042729;28;20531;-67
2023/08/17 10:09:25;;;;;;;43.30;33.70;;;18.70;99.90;;;;;;5043389;28;21103;-65
2023/08/17 10:11:53;;;;;;;42.50;32.70;;;18.20;99.90;;;;;;5040160;28;20506;-64
2023/08/17 10:14:26;;;;;;;38.25;30.30;;;18.20;99.90;;;;;;5043033;28;20499;-68
2023/08/17 10:17:00;;;;;;;44.55;33.13;;;18.20;99.90;;;;;;5039861;28;20415;-67
2023/08/17 10:19:34;;;;;;;38.80;31.50;;;18.20;99.90;;;;;;5042184;28;20858;-70
2023/08/17 10:22:09;;;;;;;39.10;30.83;;;18.20;99.90;;;;;;5038105;28;20490;-66
2023/08/17 10:24:38;;;;;;;38.38;31.45;;;18.50;99.90;;;;;;5040424;28;20431;-65
2023/08/17 10:27:06;;;;;;;36.03;29.70;;;18.60;99.90;;;;;;5037303;28;20509;-65
2023/08/17 10:29:37;;;;;;;38.22;31.30;;;18.60;99.90;;;;;;5041229;28;20726;-65
2023/08/17 10:32:04;;;;;;;36.33;29.77;;;18.50;99.90;;;;;;5036963;28;20908;-65
2023/08/17 10:34:31;;;;;;;37.30;28.70;;;18.80;99.90;;;;;;5040720;28;20423;-66
2023/08/17 10:36:59;;;;;;;34.28;27.98;;;19.00;99.90;;;;;;5040069;28;20923;-65
2023/08/17 10:39:27;;;;;;;34.22;26.40;;;19.10;99.90;;;;;;5041554;28;20455;-63
2023/08/17 10:41:55;;;;;;;32.20;27.15;;;19.70;99.90;;;;;;5039806;28;20415;-69
2023/08/17 10:44:42;;;;;;;30.85;25.80;;;19.10;99.90;;;;;;5041694;28;20510;-66
2023/08/17 10:47:22;;;;;;;33.60;28.10;;;18.90;99.90;;;;;;5046314;28;20933;-68
2023/08/17 10:49:51;;;;;;;32.28;25.50;;;19.10;99.90;;;;;;5032077;28;20431;-65
2023/08/17 10:52:27;;;;;;;31.30;26.17;;;18.90;99.90;;;;;;5032264;28;20426;-66
2023/08/17 10:54:54;;;;;;;27.17;23.97;;;19.30;99.90;;;;;;5038049;28;20441;-66
2023/08/17 10:57:34;;;;;;;24.23;21.63;;;19.70;99.90;;;;;;5035092;28;20413;-65
2023/08/17 11:00:17;;;;;;;26.17;20.92;;;19.50;99.90;;;;;;5036626;28;20472;-64
2023/08/17 11:02:45;;;;;;;23.17;19.75;;;19.60;99.90;;;;;;5040328;28;20502;-65
2023/08/17 11:05:13;;;;;;;20.95;17.92;;;19.70;99.90;;;;;;5037687;28;20431;-65
2023/08/17 11:07:41;;;;;;;20.23;17.13;;;19.80;99.90;;;;;;5039019;28;20440;-67
2023/08/17 11:10:28;;;;;;;18.80;15.25;;;19.80;99.90;;;;;;5034052;28;20490;-66
2023/08/17 11:12:56;;;;;;;19.55;15.32;;;20.40;99.90;;;;;;5037162;28;20834;-67
2023/08/17 11:15:25;;;;;;;17.45;14.73;;;20.80;99.90;;;;;;5041801;28;20409;-67
2023/08/17 11:17:52;;;;;;;19.50;16.93;;;19.60;99.90;;;;;;5037056;28;20488;-65
2023/08/17 11:20:19;;;;;;;19.65;16.35;;;19.70;99.90;;;;;;5042930;28;20452;-67
2023/08/17 11:22:47;;;;;;;16.60;14.68;;;19.90;99.90;;;;;;5039805;28;20886;-66
2023/08/17 11:25:14;;;;;;;16.30;14.60;;;20.10;99.90;;;;;;5040662;28;20524;-67
2023/08/17 11:27:40;;;;;;;14.13;12.23;;;19.90;99.90;;;;;;5038532;28;20422;-68
2023/08/17 11:30:08;;;;;;;13.50;12.02;;;20.30;99.90;;;;;;5040076;28;20940;-67
2023/08/17 11:32:36;;;;;;;14.93;11.45;;;20.20;99.90;;;;;;5039270;28;20411;-67
2023/08/17 11:35:03;;;;;;;13.95;11.88;;;20.10;99.90;;;;;;5039373;28;20472;-67
2023/08/17 11:37:30;;;;;;;15.77;12.95;;;20.10;99.90;;;;;;5039604;28;20955;-65
2023/08/17 11:39:57;;;;;;;14.75;12.43;;;20.70;99.90;;;;;;5039498;28;20457;-65
2023/08/17 11:42:23;;;;;;;16.75;13.30;;;19.80;99.90;;;;;;5039409;28;20469;-64
2023/08/17 11:44:50;;;;;;;15.05;12.80;;;20.10;99.90;;;;;;5041596;28;20500;-64
2023/08/17 11:47:17;;;;;;;15.52;13.93;;;19.80;99.90;;;;;;5039415;28;20419;-66
2023/08/17 11:49:49;;;;;;;17.17;15.37;;;20.50;99.90;;;;;;5044060;28;20413;-66
2023/08/17 11:52:16;;;;;;;16.35;14.32;;;19.60;99.90;;;;;;5046968;28;20411;-67
2023/08/17 11:54:42;;;;;;;15.25;13.65;;;19.40;99.90;;;;;;5038256;28;20409;-66
2023/08/17 11:57:09;;;;;;;15.30;12.53;;;19.70;99.90;;;;;;5039450;28;20443;-70
2023/08/17 11:59:36;;;;;;;16.57;12.00;;;;;;;;;;5040813;28;20417;-70
2023/08/17 12:02:03;;;;;;;15.15;12.90;;;19.50;99.90;;;;;;5037906;28;20419;-68
2023/08/17 12:04:30;;;;;;;14.57;13.07;;;;;;;;;;5043271;28;20425;-70
2023/08/17 12:06:58;;;;;;;14.88;12.73;;;19.60;99.90;;;;;;5039513;28;20413;-68
2023/08/17 12:09:24;;;;;;;16.92;13.85;;;19.90;99.90;;;;;;5035685;28;20422;-68
2023/08/17 12:11:59;;;;;;;14.90;13.20;;;20.30;99.90;;;;;;5031492;28;20415;-68
2023/08/17 12:14:27;;;;;;;16.67;12.90;;;21.30;99.90;;;;;;5035233;28;20500;-69
2023/08/17 12:16:54;;;;;;;17.80;14.13;;;19.80;99.90;;;;;;5034948;28;20416;-69
2023/08/17 12:19:21;;;;;;;18.20;15.87;;;20.00;99.90;;;;;;5042078;28;20428;-70
2023/08/17 12:21:49;;;;;;;21.13;16.52;;;19.80;99.90;;;;;;5029913;28;20498;-68
2023/08/17 12:24:19;;;;;;;26.40;22.25;;;19.80;99.90;;;;;;5040549;28;20420;-69
2023/08/17 12:26:47;;;;;;;34.25;26.88;;;19.60;99.90;;;;;;5034293;28;20427;-67
2023/08/17 12:29:14;;;;;;;35.50;27.13;;;19.60;99.90;;;;;;5036439;28;20502;-68
2023/08/17 12:31:40;;;;;;;44.90;32.65;;;19.40;99.90;;;;;;5033442;28;20420;-67